createdAt,value
2017-12-28T00:01:47.390Z,984.17
2017-12-28T00:02:47.385Z,984.19
2017-12-28T00:04:40.306Z,984.23
2017-12-28T00:05:40.315Z,984.29
2017-12-28T00:07:33.256Z,984.29
2017-12-28T00:08:33.243Z,984.32
2017-12-28T00:10:26.158Z,984.35
2017-12-28T00:11:26.167Z,984.34
2017-12-28T00:13:19.103Z,984.46
2017-12-28T00:14:19.098Z,984.46
2017-12-28T00:16:12.012Z,984.51
2017-12-28T00:17:12.026Z,984.53
2017-12-28T00:19:04.969Z,984.63
2017-12-28T00:20:04.953Z,984.65
2017-12-28T00:21:58.372Z,984.70
2017-12-28T00:22:58.384Z,984.69
2017-12-28T00:24:51.316Z,984.71
2017-12-28T00:25:51.306Z,984.78
2017-12-28T00:27:44.225Z,984.81
2017-12-28T00:28:44.236Z,984.81
2017-12-28T00:30:37.177Z,984.84
2017-12-28T00:31:37.165Z,984.84
2017-12-28T00:33:30.088Z,984.88
2017-12-28T00:34:30.103Z,984.87
2017-12-28T00:36:23.032Z,984.91
2017-12-28T00:37:23.025Z,984.95
2017-12-28T00:39:15.947Z,984.99
2017-12-28T00:40:15.956Z,984.97
2017-12-28T00:42:08.890Z,985.01
2017-12-28T00:43:08.880Z,985.00
2017-12-28T00:45:01.793Z,985.05
2017-12-28T00:46:01.808Z,985.02
2017-12-28T00:47:54.745Z,985.04
2017-12-28T00:48:54.736Z,985.03
2017-12-28T00:50:47.656Z,985.07
2017-12-28T00:51:47.665Z,985.06
2017-12-28T00:53:40.607Z,985.08
2017-12-28T00:54:40.595Z,985.15
2017-12-28T00:56:33.518Z,985.24
2017-12-28T00:57:33.526Z,985.24
2017-12-28T00:59:26.466Z,985.31
2017-12-28T01:00:26.456Z,985.28
2017-12-28T01:02:19.377Z,985.38
2017-12-28T01:03:19.385Z,985.42
2017-12-28T01:05:12.321Z,985.39
2017-12-28T01:06:12.311Z,985.40
2017-12-28T01:08:05.227Z,985.51
2017-12-28T01:09:05.240Z,985.51
2017-12-28T01:10:58.181Z,985.53
2017-12-28T01:11:58.173Z,985.52
2017-12-28T01:13:51.090Z,985.53
2017-12-28T01:14:51.099Z,985.52
2017-12-28T01:16:44.039Z,985.61
2017-12-28T01:17:44.028Z,985.59
2017-12-28T01:19:36.948Z,985.68
2017-12-28T01:20:36.962Z,985.69
2017-12-28T01:22:29.904Z,985.72
2017-12-28T01:23:29.942Z,985.75
2017-12-28T01:25:22.813Z,985.76
2017-12-28T01:26:22.822Z,985.73
2017-12-28T01:28:15.758Z,985.73
2017-12-28T01:29:15.751Z,985.71
2017-12-28T01:31:08.662Z,985.73
2017-12-28T01:32:08.676Z,985.75
2017-12-28T01:34:01.612Z,985.84
2017-12-28T01:35:01.605Z,985.88
2017-12-28T01:36:54.554Z,985.89
2017-12-28T01:37:54.533Z,985.91
2017-12-28T01:39:47.446Z,985.90
2017-12-28T01:40:47.456Z,985.90
2017-12-28T01:42:40.400Z,985.91
2017-12-28T01:43:40.388Z,985.99
2017-12-28T01:45:33.301Z,985.97
2017-12-28T01:46:33.315Z,985.95
2017-12-28T01:48:26.263Z,985.99
2017-12-28T01:49:26.242Z,986.00
2017-12-28T01:51:19.156Z,986.03
2017-12-28T01:52:19.172Z,986.13
2017-12-28T01:54:12.108Z,986.16
2017-12-28T01:55:12.102Z,986.09
2017-12-28T01:57:05.014Z,986.14
2017-12-28T01:58:05.027Z,986.14
2017-12-28T01:59:57.962Z,986.22
2017-12-28T02:00:57.953Z,986.23
2017-12-28T02:02:50.867Z,986.33
2017-12-28T02:03:50.880Z,986.38
2017-12-28T02:05:43.813Z,986.35
2017-12-28T02:06:43.808Z,986.34
2017-12-28T02:08:36.722Z,986.32
2017-12-28T02:09:36.738Z,986.36
2017-12-28T02:11:29.673Z,986.40
2017-12-28T02:12:29.665Z,986.38
2017-12-28T02:14:22.577Z,986.42
2017-12-28T02:15:22.590Z,986.37
2017-12-28T02:17:15.525Z,986.43
2017-12-28T02:18:15.516Z,986.46
2017-12-28T02:20:08.436Z,986.49
2017-12-28T02:21:08.445Z,986.45
2017-12-28T02:23:01.380Z,986.44
2017-12-28T02:24:01.371Z,986.45
2017-12-28T02:25:54.289Z,986.51
2017-12-28T02:26:54.299Z,986.53
2017-12-28T02:28:47.240Z,986.53
2017-12-28T02:29:47.224Z,986.58
2017-12-28T02:31:40.637Z,986.57
2017-12-28T02:32:40.649Z,986.58
2017-12-28T02:34:33.582Z,986.60
2017-12-28T02:35:33.571Z,986.63
2017-12-28T02:37:26.487Z,986.67
2017-12-28T02:38:26.502Z,986.71
2017-12-28T02:40:19.436Z,986.71
2017-12-28T02:41:19.427Z,986.73
2017-12-28T02:43:12.341Z,986.74
2017-12-28T02:44:12.348Z,986.72
2017-12-28T02:46:05.301Z,986.72
2017-12-28T02:47:05.284Z,986.75
2017-12-28T02:48:58.197Z,986.74
2017-12-28T02:49:58.212Z,986.71
2017-12-28T02:51:51.141Z,986.70
2017-12-28T02:52:51.133Z,986.65
2017-12-28T02:54:44.046Z,986.75
2017-12-28T02:55:44.057Z,986.75
2017-12-28T02:57:36.997Z,986.83
2017-12-28T02:58:36.986Z,986.82
2017-12-28T03:00:29.903Z,986.88
2017-12-28T03:01:29.913Z,986.89
2017-12-28T03:03:22.847Z,986.86
2017-12-28T03:04:22.838Z,986.91
2017-12-28T03:06:15.758Z,986.88
2017-12-28T03:07:15.766Z,986.94
2017-12-28T03:09:08.713Z,986.97
2017-12-28T03:10:08.692Z,986.98
2017-12-28T03:12:01.606Z,987.04
2017-12-28T03:13:01.616Z,987.10
2017-12-28T03:14:54.558Z,987.10
2017-12-28T03:15:54.548Z,987.09
2017-12-28T03:17:47.463Z,987.13
2017-12-28T03:18:47.473Z,987.18
2017-12-28T03:20:40.409Z,987.24
2017-12-28T03:21:40.396Z,987.25
2017-12-28T03:23:33.318Z,987.28
2017-12-28T03:24:33.325Z,987.25
2017-12-28T03:26:26.258Z,987.29
2017-12-28T03:27:26.247Z,987.30
2017-12-28T03:29:19.186Z,987.33
2017-12-28T03:30:19.174Z,987.35
2017-12-28T03:32:12.092Z,987.40
2017-12-28T03:33:12.102Z,987.40
2017-12-28T03:35:05.065Z,987.43
2017-12-28T03:36:05.035Z,987.41
2017-12-28T03:37:57.945Z,987.46
2017-12-28T03:38:57.956Z,987.44
2017-12-28T03:40:50.895Z,987.47
2017-12-28T03:41:50.881Z,987.43
2017-12-28T03:43:43.793Z,987.50
2017-12-28T03:44:43.802Z,987.50
2017-12-28T03:46:36.740Z,987.56
2017-12-28T03:47:36.728Z,987.57
2017-12-28T03:49:29.652Z,987.58
2017-12-28T03:50:29.656Z,987.61
2017-12-28T03:52:22.593Z,987.69
2017-12-28T03:53:22.579Z,987.70
2017-12-28T03:55:15.492Z,987.75
2017-12-28T03:56:15.505Z,987.74
2017-12-28T03:58:08.438Z,987.76
2017-12-28T03:59:08.428Z,987.76
2017-12-28T04:01:01.346Z,987.82
2017-12-28T04:02:01.354Z,987.82
2017-12-28T04:03:54.288Z,987.81
2017-12-28T04:04:54.281Z,987.80
2017-12-28T04:06:47.194Z,987.87
2017-12-28T04:07:47.205Z,987.89
2017-12-28T04:09:40.142Z,987.91
2017-12-28T04:10:40.132Z,987.97
2017-12-28T04:12:33.045Z,987.97
2017-12-28T04:13:33.055Z,988.00
2017-12-28T04:15:25.990Z,988.02
2017-12-28T04:16:25.980Z,988.00
2017-12-28T04:18:18.897Z,988.02
2017-12-28T04:19:18.901Z,988.03
2017-12-28T04:21:11.842Z,988.13
2017-12-28T04:22:11.828Z,988.15
2017-12-28T04:24:04.745Z,988.15
2017-12-28T04:25:04.753Z,988.16
2017-12-28T04:26:57.686Z,988.20
2017-12-28T04:27:57.679Z,988.15
2017-12-28T04:29:50.593Z,988.16
2017-12-28T04:30:50.608Z,988.22
2017-12-28T04:32:43.542Z,988.23
2017-12-28T04:33:43.554Z,988.24
2017-12-28T04:35:36.449Z,988.30
2017-12-28T04:36:36.461Z,988.31
2017-12-28T04:38:30.388Z,988.29
2017-12-28T04:39:30.378Z,988.32
2017-12-28T04:41:23.298Z,988.35
2017-12-28T04:42:23.308Z,988.33
2017-12-28T04:44:16.243Z,988.35
2017-12-28T04:45:16.235Z,988.32
2017-12-28T04:47:09.148Z,988.30
2017-12-28T04:48:09.157Z,988.39
2017-12-28T04:50:02.103Z,988.43
2017-12-28T04:51:02.086Z,988.41
2017-12-28T04:52:55.005Z,988.47
2017-12-28T04:53:55.014Z,988.56
2017-12-28T04:55:47.950Z,988.58
2017-12-28T04:56:47.941Z,988.63
2017-12-28T04:58:40.860Z,988.61
2017-12-28T04:59:40.870Z,988.66
2017-12-28T05:01:33.804Z,988.70
2017-12-28T05:02:33.794Z,988.74
2017-12-28T05:04:26.708Z,988.76
2017-12-28T05:05:26.719Z,988.78
2017-12-28T05:07:19.654Z,988.77
2017-12-28T05:08:19.650Z,988.79
2017-12-28T05:10:12.563Z,988.81
2017-12-28T05:11:12.571Z,988.77
2017-12-28T05:13:05.508Z,988.78
2017-12-28T05:14:05.498Z,988.83
2017-12-28T05:15:58.418Z,988.88
2017-12-28T05:16:58.429Z,988.92
2017-12-28T05:18:51.361Z,988.92
2017-12-28T05:19:51.354Z,989.00
2017-12-28T05:21:44.271Z,989.05
2017-12-28T05:22:44.278Z,989.08
2017-12-28T05:24:37.213Z,989.05
2017-12-28T05:25:37.204Z,989.01
2017-12-28T05:27:30.121Z,989.09
2017-12-28T05:28:30.131Z,989.06
2017-12-28T05:30:23.065Z,989.09
2017-12-28T05:31:23.057Z,989.09
2017-12-28T05:33:15.969Z,989.16
2017-12-28T05:34:15.986Z,989.17
2017-12-28T05:36:08.918Z,989.20
2017-12-28T05:37:08.909Z,989.15
2017-12-28T05:39:01.823Z,989.18
2017-12-28T05:40:01.836Z,989.19
2017-12-28T05:41:54.821Z,989.24
2017-12-28T05:42:54.764Z,989.22
2017-12-28T05:44:47.685Z,989.24
2017-12-28T05:45:47.694Z,989.21
2017-12-28T05:47:40.629Z,989.28
2017-12-28T05:48:40.612Z,989.32
2017-12-28T05:50:33.533Z,989.40
2017-12-28T05:51:33.544Z,989.46
2017-12-28T05:53:26.484Z,989.41
2017-12-28T05:54:26.473Z,989.38
2017-12-28T05:56:19.390Z,989.33
2017-12-28T05:57:19.399Z,989.39
2017-12-28T05:59:12.337Z,989.45
2017-12-28T06:00:12.324Z,989.46
2017-12-28T06:02:05.243Z,989.52
2017-12-28T06:03:05.251Z,989.55
2017-12-28T06:04:58.188Z,989.68
2017-12-28T06:05:58.178Z,989.67
2017-12-28T06:07:51.097Z,989.68
2017-12-28T06:08:51.106Z,989.61
2017-12-28T06:10:44.041Z,989.70
2017-12-28T06:11:44.032Z,989.65
2017-12-28T06:13:36.946Z,989.79
2017-12-28T06:14:36.958Z,989.79
2017-12-28T06:16:29.896Z,989.78
2017-12-28T06:17:29.886Z,989.83
2017-12-28T06:19:22.795Z,989.85
2017-12-28T06:20:22.808Z,989.97
2017-12-28T06:22:15.748Z,989.93
2017-12-28T06:23:15.737Z,989.96
2017-12-28T06:25:08.651Z,989.99
2017-12-28T06:26:08.660Z,990.01
2017-12-28T06:28:01.598Z,990.06
2017-12-28T06:29:01.588Z,990.07
2017-12-28T06:30:54.504Z,990.08
2017-12-28T06:31:54.512Z,990.11
2017-12-28T06:33:47.448Z,990.18
2017-12-28T06:34:47.438Z,990.18
2017-12-28T06:36:40.352Z,990.20
2017-12-28T06:37:40.370Z,990.17
2017-12-28T06:39:33.295Z,990.24
2017-12-28T06:40:33.280Z,990.25
2017-12-28T06:42:26.198Z,990.27
2017-12-28T06:43:26.207Z,990.26
2017-12-28T06:45:19.643Z,990.30
2017-12-28T06:46:19.633Z,990.29
2017-12-28T06:48:12.546Z,990.31
2017-12-28T06:49:12.560Z,990.29
2017-12-28T06:51:05.490Z,990.31
2017-12-28T06:52:05.482Z,990.35
2017-12-28T06:53:58.394Z,990.35
2017-12-28T06:54:58.407Z,990.35
2017-12-28T06:56:51.343Z,990.43
2017-12-28T06:57:51.333Z,990.43
2017-12-28T06:59:44.245Z,990.47
2017-12-28T07:00:44.259Z,990.48
2017-12-28T07:02:37.216Z,990.52
2017-12-28T07:03:37.208Z,990.44
2017-12-28T07:05:30.124Z,990.43
2017-12-28T07:06:30.133Z,990.52
2017-12-28T07:08:23.069Z,990.47
2017-12-28T07:09:23.062Z,990.50
2017-12-28T07:11:15.975Z,990.55
2017-12-28T07:12:15.987Z,990.49
2017-12-28T07:14:08.921Z,990.54
2017-12-28T07:15:08.913Z,990.57
2017-12-28T07:17:01.826Z,990.52
2017-12-28T07:18:01.839Z,990.53
2017-12-28T07:19:54.779Z,990.59
2017-12-28T07:20:54.765Z,990.60
2017-12-28T07:22:47.679Z,990.71
2017-12-28T07:23:47.691Z,990.69
2017-12-28T07:25:40.629Z,990.67
2017-12-28T07:26:40.622Z,990.66
2017-12-28T07:28:33.529Z,990.69
2017-12-28T07:29:33.544Z,990.71
2017-12-28T07:31:26.482Z,990.73
2017-12-28T07:32:26.468Z,990.77
2017-12-28T07:34:19.382Z,990.78
2017-12-28T07:35:19.393Z,990.79
2017-12-28T07:37:12.333Z,990.80
2017-12-28T07:38:12.319Z,990.81
2017-12-28T07:40:05.237Z,990.87
2017-12-28T07:41:05.247Z,990.84
2017-12-28T07:42:58.183Z,990.89
2017-12-28T07:43:58.173Z,990.87
2017-12-28T07:45:51.106Z,990.95
2017-12-28T07:46:51.098Z,990.96
2017-12-28T07:48:44.012Z,990.95
2017-12-28T07:49:44.024Z,990.97
2017-12-28T07:51:36.963Z,990.92
2017-12-28T07:52:36.951Z,991.00
2017-12-28T07:54:29.867Z,991.01
2017-12-28T07:55:29.876Z,991.05
2017-12-28T07:57:23.325Z,991.05
2017-12-28T07:58:23.296Z,991.07
2017-12-28T08:00:16.210Z,991.12
2017-12-28T08:01:16.223Z,991.10
2017-12-28T08:03:09.154Z,991.14
2017-12-28T08:04:09.150Z,991.16
2017-12-28T08:06:02.058Z,991.12
2017-12-28T08:07:02.066Z,991.16
2017-12-28T08:08:55.004Z,991.15
2017-12-28T08:09:54.998Z,991.19
2017-12-28T08:11:47.908Z,991.22
2017-12-28T08:12:47.922Z,991.19
2017-12-28T08:14:40.853Z,991.26
2017-12-28T08:15:40.852Z,991.26
2017-12-28T08:17:33.758Z,991.28
2017-12-28T08:18:33.771Z,991.28
2017-12-28T08:20:26.705Z,991.30
2017-12-28T08:21:26.694Z,991.26
2017-12-28T08:23:19.635Z,991.27
2017-12-28T08:24:19.621Z,991.36
2017-12-28T08:26:12.535Z,991.34
2017-12-28T08:27:12.544Z,991.35
2017-12-28T08:29:05.498Z,991.33
2017-12-28T08:30:05.475Z,991.35
2017-12-28T08:31:58.388Z,991.37
2017-12-28T08:32:58.402Z,991.42
2017-12-28T08:34:51.335Z,991.37
2017-12-28T08:35:51.327Z,991.41
2017-12-28T08:37:44.244Z,991.43
2017-12-28T08:38:44.253Z,991.41
2017-12-28T08:40:37.184Z,991.45
2017-12-28T08:41:37.178Z,991.48
2017-12-28T08:43:30.090Z,991.50
2017-12-28T08:44:30.101Z,991.51
2017-12-28T08:46:23.036Z,991.56
2017-12-28T08:47:23.032Z,991.54
2017-12-28T08:49:15.942Z,991.58
2017-12-28T08:50:15.960Z,991.58
2017-12-28T08:52:08.889Z,991.59
2017-12-28T08:53:08.882Z,991.54
2017-12-28T08:55:01.793Z,991.58
2017-12-28T08:56:01.806Z,991.55
2017-12-28T08:57:54.747Z,991.67
2017-12-28T08:58:54.730Z,991.65
2017-12-28T09:00:47.645Z,991.65
2017-12-28T09:01:47.657Z,991.68
2017-12-28T09:03:40.598Z,991.68
2017-12-28T09:04:40.585Z,991.76
2017-12-28T09:06:33.502Z,991.84
2017-12-28T09:07:33.509Z,991.81
2017-12-28T09:09:26.445Z,991.79
2017-12-28T09:10:26.435Z,991.90
2017-12-28T09:12:19.364Z,991.86
2017-12-28T09:13:19.364Z,991.86
2017-12-28T09:15:12.304Z,991.85
2017-12-28T09:16:12.293Z,991.87
2017-12-28T09:18:05.234Z,991.92
2017-12-28T09:19:05.224Z,991.96
2017-12-28T09:20:58.132Z,991.99
2017-12-28T09:21:58.146Z,992.01
2017-12-28T09:23:51.080Z,992.02
2017-12-28T09:24:51.070Z,992.08
2017-12-28T09:26:43.983Z,992.05
2017-12-28T09:27:43.995Z,992.11
2017-12-28T09:29:36.939Z,992.17
2017-12-28T09:30:36.922Z,992.18
2017-12-28T09:32:29.836Z,992.18
2017-12-28T09:33:29.848Z,992.21
2017-12-28T09:35:22.783Z,992.24
2017-12-28T09:36:22.774Z,992.24
2017-12-28T09:38:15.692Z,992.23
2017-12-28T09:39:15.700Z,992.20
2017-12-28T09:41:08.635Z,992.26
2017-12-28T09:42:08.625Z,992.24
2017-12-28T09:44:01.543Z,992.26
2017-12-28T09:45:01.555Z,992.21
2017-12-28T09:46:54.488Z,992.24
2017-12-28T09:47:54.480Z,992.29
2017-12-28T09:49:47.397Z,992.28
2017-12-28T09:50:47.404Z,992.32
2017-12-28T09:52:40.342Z,992.36
2017-12-28T09:53:40.329Z,992.33
2017-12-28T09:55:33.244Z,992.39
2017-12-28T09:56:33.257Z,992.38
2017-12-28T09:58:26.192Z,992.40
2017-12-28T09:59:26.183Z,992.47
2017-12-28T10:01:19.097Z,992.34
2017-12-28T10:02:19.110Z,992.42
2017-12-28T10:04:12.044Z,992.49
2017-12-28T10:05:12.037Z,992.49
2017-12-28T10:07:04.956Z,992.49
2017-12-28T10:08:04.960Z,992.48
2017-12-28T10:09:57.904Z,992.53
2017-12-28T10:10:57.888Z,992.50
2017-12-28T10:12:50.839Z,992.51
2017-12-28T10:13:50.813Z,992.49
2017-12-28T10:15:43.731Z,992.50
2017-12-28T10:16:43.741Z,992.50
2017-12-28T10:18:36.684Z,992.50
2017-12-28T10:19:36.670Z,992.47
2017-12-28T10:21:29.589Z,992.47
2017-12-28T10:22:29.597Z,992.45
2017-12-28T10:24:22.538Z,992.48
2017-12-28T10:25:22.521Z,992.54
2017-12-28T10:27:15.432Z,992.53
2017-12-28T10:28:15.444Z,992.55
2017-12-28T10:30:08.380Z,992.59
2017-12-28T10:31:08.370Z,992.63
2017-12-28T10:33:01.284Z,992.61
2017-12-28T10:34:01.299Z,992.64
2017-12-28T10:35:54.235Z,992.64
2017-12-28T10:36:54.224Z,992.67
2017-12-28T10:38:47.147Z,992.68
2017-12-28T10:39:47.152Z,992.71
2017-12-28T10:41:40.083Z,992.71
2017-12-28T10:42:40.080Z,992.69
2017-12-28T10:44:32.999Z,992.73
2017-12-28T10:45:33.009Z,992.75
2017-12-28T10:47:25.943Z,992.76
2017-12-28T10:48:25.934Z,992.81
2017-12-28T10:50:18.850Z,992.80
2017-12-28T10:51:18.862Z,992.80
2017-12-28T10:53:11.798Z,992.76
2017-12-28T10:54:11.788Z,992.79
2017-12-28T10:56:04.702Z,992.82
2017-12-28T10:57:04.716Z,992.81
2017-12-28T10:58:57.652Z,992.85
2017-12-28T10:59:57.642Z,992.85
2017-12-28T11:01:50.577Z,992.93
2017-12-28T11:02:50.582Z,993.00
2017-12-28T11:04:43.488Z,992.98
2017-12-28T11:05:43.496Z,992.97
2017-12-28T11:07:36.435Z,993.03
2017-12-28T11:08:36.428Z,993.05
2017-12-28T11:10:29.340Z,993.00
2017-12-28T11:11:29.347Z,993.05
2017-12-28T11:13:22.284Z,993.03
2017-12-28T11:14:22.278Z,993.09
2017-12-28T11:16:15.224Z,993.09
2017-12-28T11:17:15.205Z,993.07
2017-12-28T11:19:08.138Z,993.05
2017-12-28T11:20:08.131Z,993.06
2017-12-28T11:22:01.045Z,993.09
2017-12-28T11:23:01.050Z,993.09
2017-12-28T11:24:53.982Z,993.08
2017-12-28T11:25:53.989Z,993.13
2017-12-28T11:27:46.897Z,993.08
2017-12-28T11:28:46.906Z,993.15
2017-12-28T11:30:39.850Z,993.10
2017-12-28T11:31:39.836Z,993.12
2017-12-28T11:33:32.778Z,993.17
2017-12-28T11:34:32.766Z,993.16
2017-12-28T11:36:25.683Z,993.23
2017-12-28T11:37:25.694Z,993.20
2017-12-28T11:39:18.634Z,993.30
2017-12-28T11:40:18.621Z,993.27
2017-12-28T11:42:11.540Z,993.26
2017-12-28T11:43:11.548Z,993.22
2017-12-28T11:45:04.520Z,993.27
2017-12-28T11:46:04.478Z,993.25
2017-12-28T11:47:57.397Z,993.30
2017-12-28T11:48:57.415Z,993.30
2017-12-28T11:50:50.343Z,993.30
2017-12-28T11:51:50.337Z,993.39
2017-12-28T11:53:43.249Z,993.36
2017-12-28T11:54:43.262Z,993.39
2017-12-28T11:56:36.197Z,993.41
2017-12-28T11:57:36.182Z,993.44
2017-12-28T11:59:29.107Z,993.37
2017-12-28T12:00:29.114Z,993.45
2017-12-28T12:02:22.053Z,993.49
2017-12-28T12:03:22.045Z,993.50
2017-12-28T12:05:14.980Z,993.47
2017-12-28T12:06:14.972Z,993.50
2017-12-28T12:08:07.886Z,993.52
2017-12-28T12:09:07.893Z,993.50
2017-12-28T12:11:00.848Z,993.59
2017-12-28T12:12:00.826Z,993.59
2017-12-28T12:13:53.744Z,993.47
2017-12-28T12:14:53.752Z,993.57
2017-12-28T12:16:46.690Z,993.56
2017-12-28T12:17:46.680Z,993.53
2017-12-28T12:19:39.597Z,993.49
2017-12-28T12:20:39.614Z,993.51
2017-12-28T12:22:32.550Z,993.51
2017-12-28T12:23:32.541Z,993.51
2017-12-28T12:25:25.481Z,993.45
2017-12-28T12:26:25.468Z,993.44
2017-12-28T12:28:18.383Z,993.43
2017-12-28T12:29:18.395Z,993.44
2017-12-28T12:31:11.337Z,993.42
2017-12-28T12:32:11.320Z,993.43
2017-12-28T12:34:04.237Z,993.44
2017-12-28T12:35:04.250Z,993.49
2017-12-28T12:36:57.187Z,993.46
2017-12-28T12:37:57.180Z,993.46
2017-12-28T12:39:50.099Z,993.60
2017-12-28T12:40:50.105Z,993.56
2017-12-28T12:42:43.048Z,993.60
2017-12-28T12:43:43.042Z,993.60
2017-12-28T12:45:35.956Z,993.59
2017-12-28T12:46:35.968Z,993.55
2017-12-28T12:48:28.902Z,993.56
2017-12-28T12:49:28.894Z,993.56
2017-12-28T12:51:21.812Z,993.62
2017-12-28T12:52:21.830Z,993.60
2017-12-28T12:54:14.759Z,993.67
2017-12-28T12:55:14.748Z,993.64
2017-12-28T12:57:07.667Z,993.62
2017-12-28T12:58:07.680Z,993.68
2017-12-28T13:00:00.616Z,993.62
2017-12-28T13:01:00.602Z,993.69
2017-12-28T13:02:53.544Z,993.74
2017-12-28T13:03:53.534Z,993.73
2017-12-28T13:05:46.457Z,993.80
2017-12-28T13:06:46.468Z,993.80
2017-12-28T13:08:39.405Z,993.89
2017-12-28T13:09:39.396Z,993.85
2017-12-28T13:11:32.311Z,993.91
2017-12-28T13:12:32.323Z,993.92
2017-12-28T13:14:25.259Z,993.95
2017-12-28T13:15:25.250Z,993.99
2017-12-28T13:17:18.169Z,994.01
2017-12-28T13:18:18.179Z,994.01
2017-12-28T13:20:11.116Z,994.07
2017-12-28T13:21:11.109Z,994.08
2017-12-28T13:23:04.032Z,994.10
2017-12-28T13:24:04.043Z,994.12
2017-12-28T13:25:56.981Z,994.13
2017-12-28T13:26:56.966Z,994.08
2017-12-28T13:28:49.885Z,994.10
2017-12-28T13:29:49.898Z,994.08
2017-12-28T13:31:42.835Z,994.15
2017-12-28T13:32:42.830Z,994.05
2017-12-28T13:34:35.763Z,994.16
2017-12-28T13:35:35.757Z,994.16
2017-12-28T13:37:28.668Z,994.14
2017-12-28T13:38:28.685Z,994.19
2017-12-28T13:40:21.620Z,994.16
2017-12-28T13:41:21.621Z,994.17
2017-12-28T13:43:14.529Z,994.13
2017-12-28T13:44:14.540Z,994.23
2017-12-28T13:46:07.483Z,994.21
2017-12-28T13:47:07.470Z,994.23
2017-12-28T13:49:00.387Z,994.15
2017-12-28T13:50:00.397Z,994.17
2017-12-28T13:51:53.334Z,994.23
2017-12-28T13:52:53.324Z,994.25
2017-12-28T13:54:46.243Z,994.26
2017-12-28T13:55:46.255Z,994.24
2017-12-28T13:57:39.190Z,994.26
2017-12-28T13:58:39.182Z,994.29
2017-12-28T14:00:32.097Z,994.30
2017-12-28T14:01:32.110Z,994.34
2017-12-28T14:03:25.048Z,994.35
2017-12-28T14:04:25.043Z,994.36
2017-12-28T14:06:17.958Z,994.43
2017-12-28T14:07:17.970Z,994.43
2017-12-28T14:09:10.906Z,994.45
2017-12-28T14:10:10.898Z,994.52
2017-12-28T14:12:03.813Z,994.55
2017-12-28T14:13:03.826Z,994.54
2017-12-28T14:14:56.766Z,994.54
2017-12-28T14:15:56.757Z,994.54
2017-12-28T14:17:49.703Z,994.53
2017-12-28T14:18:49.690Z,994.52
2017-12-28T14:20:42.607Z,994.58
2017-12-28T14:21:42.618Z,994.56
2017-12-28T14:23:35.552Z,994.59
2017-12-28T14:24:35.545Z,994.62
2017-12-28T14:26:28.459Z,994.62
2017-12-28T14:27:28.471Z,994.62
2017-12-28T14:29:21.409Z,994.67
2017-12-28T14:30:21.403Z,994.71
2017-12-28T14:32:14.320Z,994.76
2017-12-28T14:33:14.330Z,994.79
2017-12-28T14:35:07.265Z,994.80
2017-12-28T14:36:07.255Z,994.77
2017-12-28T14:38:00.175Z,994.88
2017-12-28T14:39:00.185Z,994.90
2017-12-28T14:40:53.122Z,994.90
2017-12-28T14:41:53.115Z,995.00
2017-12-28T14:43:46.035Z,994.90
2017-12-28T14:44:46.043Z,994.96
2017-12-28T14:46:38.981Z,994.97
2017-12-28T14:47:38.971Z,994.95
2017-12-28T14:49:31.885Z,994.97
2017-12-28T14:50:31.901Z,994.98
2017-12-28T14:52:24.837Z,995.01
2017-12-28T14:53:24.830Z,994.98
2017-12-28T14:55:17.746Z,995.08
2017-12-28T14:56:17.754Z,995.09
2017-12-28T14:58:10.691Z,995.06
2017-12-28T14:59:10.687Z,995.08
2017-12-28T15:01:03.600Z,995.07
2017-12-28T15:02:03.622Z,995.10
2017-12-28T15:03:56.551Z,995.16
2017-12-28T15:04:56.540Z,995.15
2017-12-28T15:06:49.455Z,995.15
2017-12-28T15:07:49.467Z,995.20
2017-12-28T15:09:42.397Z,995.16
2017-12-28T15:10:42.397Z,995.19
2017-12-28T15:12:35.312Z,995.26
2017-12-28T15:13:35.325Z,995.26
2017-12-28T15:15:28.255Z,995.28
2017-12-28T15:16:28.254Z,995.35
2017-12-28T15:18:21.190Z,995.34
2017-12-28T15:19:21.180Z,995.38
2017-12-28T15:21:14.099Z,995.33
2017-12-28T15:22:14.108Z,995.33
2017-12-28T15:24:07.046Z,995.37
2017-12-28T15:25:07.035Z,995.36
2017-12-28T15:26:59.950Z,995.36
2017-12-28T15:27:59.965Z,995.35
2017-12-28T15:29:52.899Z,995.35
2017-12-28T15:30:52.894Z,995.35
2017-12-28T15:32:45.810Z,995.35
2017-12-28T15:33:45.820Z,995.41
2017-12-28T15:35:38.758Z,995.42
2017-12-28T15:36:38.747Z,995.48
2017-12-28T15:38:31.662Z,995.46
2017-12-28T15:39:31.674Z,995.43
2017-12-28T15:41:24.610Z,995.40
2017-12-28T15:42:24.603Z,995.41
2017-12-28T15:44:17.517Z,995.43
2017-12-28T15:45:17.531Z,995.48
2017-12-28T15:47:10.465Z,995.49
2017-12-28T15:48:10.456Z,995.48
2017-12-28T15:50:03.370Z,995.47
2017-12-28T15:51:03.384Z,995.48
2017-12-28T15:52:56.321Z,995.55
2017-12-28T15:53:56.313Z,995.56
2017-12-28T15:55:49.248Z,995.57
2017-12-28T15:56:49.238Z,995.62
2017-12-28T15:58:42.174Z,995.64
2017-12-28T15:59:42.167Z,995.68
2017-12-28T16:01:35.106Z,995.67
2017-12-28T16:02:35.093Z,995.64
2017-12-28T16:04:28.010Z,995.72
2017-12-28T16:05:28.020Z,995.70
2017-12-28T16:07:20.961Z,995.69
2017-12-28T16:08:20.948Z,995.70
2017-12-28T16:10:13.864Z,995.69
2017-12-28T16:11:13.878Z,995.73
2017-12-28T16:13:06.812Z,995.80
2017-12-28T16:14:06.807Z,995.82
2017-12-28T16:15:59.718Z,995.80
2017-12-28T16:16:59.730Z,995.82
2017-12-28T16:18:52.666Z,995.85
2017-12-28T16:19:52.655Z,995.86
2017-12-28T16:21:45.568Z,995.86
2017-12-28T16:22:45.579Z,995.81
2017-12-28T16:24:38.515Z,995.89
2017-12-28T16:25:38.504Z,995.88
2017-12-28T16:27:31.420Z,995.89
2017-12-28T16:28:31.430Z,995.86
2017-12-28T16:30:24.366Z,995.92
2017-12-28T16:31:24.357Z,995.94
2017-12-28T16:33:17.302Z,995.98
2017-12-28T16:34:17.289Z,996.00
2017-12-28T16:36:10.203Z,996.08
2017-12-28T16:37:10.212Z,996.06
2017-12-28T16:39:03.146Z,996.12
2017-12-28T16:40:03.139Z,996.14
2017-12-28T16:41:56.056Z,996.17
2017-12-28T16:42:56.065Z,996.17
2017-12-28T16:44:49.002Z,996.12
2017-12-28T16:45:48.996Z,996.05
2017-12-28T16:47:41.942Z,996.12
2017-12-28T16:48:41.953Z,996.15
2017-12-28T16:50:34.888Z,996.09
2017-12-28T16:51:34.878Z,996.11
2017-12-28T16:53:27.803Z,996.13
2017-12-28T16:54:27.811Z,996.15
2017-12-28T16:56:20.738Z,996.20
2017-12-28T16:57:20.732Z,996.21
2017-12-28T16:59:13.644Z,996.26
2017-12-28T17:00:13.646Z,996.29
2017-12-28T17:02:06.583Z,996.38
2017-12-28T17:03:06.579Z,996.38
2017-12-28T17:04:59.514Z,996.43
2017-12-28T17:05:59.503Z,996.43
2017-12-28T17:07:52.419Z,996.53
2017-12-28T17:08:52.428Z,996.53
2017-12-28T17:10:45.360Z,996.56
2017-12-28T17:11:45.352Z,996.56
2017-12-28T17:13:38.276Z,996.59
2017-12-28T17:14:38.272Z,996.55
2017-12-28T17:16:31.212Z,996.55
2017-12-28T17:17:31.204Z,996.56
2017-12-28T17:19:24.118Z,996.54
2017-12-28T17:20:24.127Z,996.56
2017-12-28T17:22:17.060Z,996.64
2017-12-28T17:23:17.048Z,996.69
2017-12-28T17:25:09.966Z,996.72
2017-12-28T17:26:09.977Z,996.76
2017-12-28T17:28:02.912Z,996.75
2017-12-28T17:29:02.902Z,996.78
2017-12-28T17:30:55.816Z,996.77
2017-12-28T17:31:55.826Z,996.69
2017-12-28T17:33:48.761Z,996.75
2017-12-28T17:34:48.752Z,996.75
2017-12-28T17:36:41.666Z,996.76
2017-12-28T17:37:41.681Z,996.79
2017-12-28T17:39:34.611Z,996.83
2017-12-28T17:40:34.602Z,996.84
2017-12-28T17:42:27.538Z,996.80
2017-12-28T17:43:27.523Z,996.76
2017-12-28T17:45:20.442Z,996.79
2017-12-28T17:46:20.450Z,996.81
2017-12-28T17:48:13.388Z,996.80
2017-12-28T17:49:13.379Z,996.84
2017-12-28T17:51:06.291Z,996.88
2017-12-28T17:52:06.303Z,996.87
2017-12-28T17:53:59.239Z,996.87
2017-12-28T17:54:59.229Z,996.88
2017-12-28T17:56:52.148Z,996.93
2017-12-28T17:57:52.155Z,996.96
2017-12-28T17:59:45.094Z,996.96